Montreal / Pierre Elliott Trudeau International Airport

CYUL · Quebec, 加拿大

罗盘
风向 的 风向 270° 蒙特利尔皮埃尔·埃利奥特·特鲁多国际机场 6R/24L
风向 到 风: 23 kt, 阵阵 32 kt, 6 beaufort

19 kt

13 kt
改变
0 1.000 2.000 3.000 4.000 5.000
FEW 2.000 ft
BKN 3.500 ft
METAR CYUL 040249Z 27023G32KT 15SM FEW020 BKN035 02/M04 A2995 RMK SF1SC6 PRESRR SLP146

METAR 蒙特利尔皮埃尔·埃利奥特·特鲁多国际机场 - CYUL/YUL

蒙特利尔皮埃尔·埃利奥特·特鲁多国际机场是,加拿大中的大型机场。 该机场有3条跑道: 6R/24L, 6L/24R 和 10/28. 该领域的国际民航组织标志是CYUL 它的国际航空运输协会代码是YUL.

这份报告是针对2022年12月3日 21:49, 当地时间在蒙特利尔皮埃尔·埃利奥特·特鲁多国际机场进行的。

机场观察

风向为270°,速度为23 kt。 已测得32 kt的阵风。

可见度为15 mi。

有几云在2.000 ft的高度 和 碎云在3.500 ft的高度。 破损或更高的上限为3.500 ft。

温度为2 °C,阵风为-7 °C。 露点为-4 °C,相对湿度为65%。 海平面上的气压为29,95 inHg (QNH)。

白天

今天,太阳从07:18升起,在16:12降落。 这适用于蒙特利尔皮埃尔·埃利奥特·特鲁多国际机场,世界夏令时可能有所不同。 当地时间与世界标准时间之间的时差为-5 小时。 当前,没有夏令时有效。

公司介绍

我们没有关于这个机场的公司信息。

体会

到Vliegles.nl去找飞行课程,跳伞和其他飞行体验。 浏览页面,了解蒙特利尔皮埃尔·埃利奥特·特鲁多国际机场附近所有可用的活动。 你也可以使用搜索功能来寻找你所在地附近的特定飞行课程、跳伞或其他飞行体验。

跑道

Id 标题 侧风 逆风 侧风 %
6R/24L 057°-237° 13-17 kt 19-27 kt 54 %
6L/24R 057°-237° 13-17 kt 19-27 kt 54 %
10/28 102°-282° 5-7 kt 22-31 kt 21 %

逆风成分最大的方向会被突出显示,并用于横风计算。 这并不一定意味着这个方向在使用。

乌云

2.000 ft FEW 几云
3.500 ft BKN 碎云

温度 & 天气

温度 2 °C
露点 -4 °C
相对湿度 65%
风寒 -7 °C
Kp-index 2 (0-9)

评论

PRESRR气压迅速上升
SLP146海平面压力为29,96 inHg (29,96 inHg)
SF1SC6

白天

日出
07:18 (9:14)
中午
11:45
日落
16:12

小工具

你想在你的网站上有一个关于蒙特利尔皮埃尔·埃利奥特·特鲁多国际机场的当前航空天气(METAR)的小部件吗?

显示HTML代码

我们和第三方通过cookies跟踪您在我们网站上的互联网行为。如果你继续,我们认为你同意我们的饼干政策